Time;durP1;ratioP1;P1;durP2;ratioP2;P2;SDS_P1;SDS_P2;PMS_P1;PMS_P2;Temp;Humidity;BMP_temperature;BMP_pressure;BME280_temperature;BME280_humidity;BME280_pressure;Samples;Min_cycle;Max_cycle;Signal;HPM_P1;HPM_P2
2022/11/06 00:01:30;;;;;;;11.90;4.68;;;10.70;99.10;;;;;;6275864;22;20082;-82
2022/11/06 00:03:56;;;;;;;11.10;4.65;;;10.70;99.20;;;;;;6275046;22;20087;-82
2022/11/06 00:09:10;;;;;;;11.48;4.93;;;10.60;99.20;;;;;;6275937;22;20015;-83
2022/11/06 00:11:37;;;;;;;8.43;4.32;;;10.60;99.30;;;;;;6247864;22;20043;-82
2022/11/06 00:14:03;;;;;;;12.55;4.90;;;10.60;99.30;;;;;;6248759;22;20537;-82
2022/11/06 00:16:29;;;;;;;10.57;5.32;;;10.60;99.30;;;;;;6249027;22;20008;-83
2022/11/06 00:18:54;;;;;;;12.52;5.32;;;10.60;99.40;;;;;;6247494;22;20024;-83
2022/11/06 00:21:23;;;;;;;10.55;4.53;;;10.60;99.50;;;;;;6249180;22;20349;-83
2022/11/06 00:23:50;;;;;;;12.40;5.18;;;10.60;99.60;;;;;;6248562;22;20008;-83
2022/11/06 00:26:20;;;;;;;11.13;5.18;;;10.60;99.70;;;;;;6248041;22;20102;-83
2022/11/06 00:28:47;;;;;;;13.15;5.25;;;10.50;99.70;;;;;;6248746;22;20090;-83
2022/11/06 00:31:18;;;;;;;11.10;5.35;;;10.50;99.80;;;;;;6275511;22;20062;-83
2022/11/06 00:33:44;;;;;;;14.77;5.35;;;10.50;99.90;;;;;;6248263;22;20023;-83
2022/11/06 00:36:12;;;;;;;10.55;5.20;;;10.50;99.90;;;;;;6248830;22;20094;-83
2022/11/06 00:38:38;;;;;;;11.18;5.85;;;10.50;99.90;;;;;;6247685;22;20016;-83
2022/11/06 00:41:06;;;;;;;15.55;5.78;;;10.50;99.90;;;;;;6248566;22;20008;-83
2022/11/06 00:43:32;;;;;;;10.65;5.53;;;10.40;99.90;;;;;;6248866;22;20046;-83
2022/11/06 00:46:10;;;;;;;11.20;5.97;;;10.40;99.90;;;;;;6248084;22;20012;-83
2022/11/06 00:48:36;;;;;;;11.25;5.60;;;10.40;99.90;;;;;;6276344;22;20141;-83
2022/11/06 00:51:09;;;;;;;13.73;5.97;;;10.40;99.90;;;;;;6248393;22;20634;-82
2022/11/06 00:53:34;;;;;;;12.05;5.60;;;10.40;99.90;;;;;;6247513;22;20012;-83
2022/11/06 00:56:04;;;;;;;11.13;5.40;;;10.40;99.90;;;;;;6248030;22;20085;-83
2022/11/06 00:58:30;;;;;;;9.88;5.65;;;10.40;99.90;;;;;;6276207;22;20020;-82
2022/11/06 01:00:55;;;;;;;12.50;5.85;;;10.40;99.90;;;;;;6247511;22;20034;-84
2022/11/06 01:03:21;;;;;;;14.18;5.82;;;10.30;99.90;;;;;;6249068;22;20016;-82
2022/11/06 01:05:47;;;;;;;11.30;5.78;;;10.30;99.90;;;;;;6250494;22;20019;-83
2022/11/06 01:08:12;;;;;;;12.38;5.63;;;10.30;99.90;;;;;;6249312;22;20043;-83
2022/11/06 01:10:38;;;;;;;11.68;5.63;;;10.30;99.90;;;;;;6277572;22;20020;-83
2022/11/06 01:13:03;;;;;;;12.63;5.50;;;10.30;99.90;;;;;;6250155;22;20019;-84
2022/11/06 01:15:29;;;;;;;11.45;6.18;;;10.30;99.90;;;;;;6277387;22;20015;-82
2022/11/06 01:17:54;;;;;;;10.73;5.63;;;10.30;99.90;;;;;;6277867;22;20426;-83
2022/11/06 01:20:20;;;;;;;12.07;5.90;;;10.30;99.90;;;;;;6275948;22;20012;-82
2022/11/06 01:22:45;;;;;;;12.60;5.53;;;10.30;99.90;;;;;;6249926;22;20015;-83
2022/11/06 01:25:11;;;;;;;13.70;6.03;;;10.30;99.90;;;;;;6250465;22;20436;-82
2022/11/06 01:27:37;;;;;;;11.77;5.70;;;10.30;99.90;;;;;;6249771;22;20051;-82
2022/11/06 01:30:03;;;;;;;10.88;6.15;;;10.20;99.90;;;;;;6277342;22;20011;-83
2022/11/06 01:32:28;;;;;;;12.70;6.03;;;10.20;99.90;;;;;;6277478;22;20087;-83
2022/11/06 01:34:54;;;;;;;10.13;6.05;;;10.20;99.90;;;;;;6249130;22;20121;-83
2022/11/06 01:37:20;;;;;;;12.43;6.10;;;10.20;99.90;;;;;;6249969;22;20081;-83
2022/11/06 01:39:49;;;;;;;13.50;6.30;;;10.20;99.90;;;;;;6250038;22;20039;-83
2022/11/06 01:42:17;;;;;;;13.32;5.72;;;10.20;99.90;;;;;;6249751;22;20055;-83
2022/11/06 01:44:42;;;;;;;11.82;6.05;;;10.20;99.90;;;;;;6277368;22;20023;-83
2022/11/06 01:47:22;;;;;;;10.27;5.55;;;10.20;99.90;;;;;;6277496;22;20019;-83
2022/11/06 01:49:50;;;;;;;14.93;6.03;;;10.20;99.90;;;;;;6276451;22;20023;-83
2022/11/06 01:52:17;;;;;;;10.15;5.85;;;10.20;99.90;;;;;;6277033;22;20015;-83
2022/11/06 01:54:47;;;;;;;11.13;6.20;;;10.20;99.90;;;;;;6250059;22;20058;-83
2022/11/06 01:57:13;;;;;;;11.40;5.72;;;10.20;99.90;;;;;;6248537;22;20047;-83
2022/11/06 01:59:44;;;;;;;11.57;5.78;;;10.20;99.90;;;;;;6250333;22;20016;-83
2022/11/06 02:02:11;;;;;;;14.43;6.20;;;10.20;99.90;;;;;;6250194;22;20045;-83
2022/11/06 02:04:47;;;;;;;9.95;5.90;;;10.20;99.90;;;;;;6249148;22;20042;-82
2022/11/06 02:07:13;;;;;;;13.75;6.03;;;10.10;99.90;;;;;;6249992;22;20090;-83
2022/11/06 02:09:39;;;;;;;13.10;6.10;;;10.10;99.90;;;;;;6248814;22;20012;-83
2022/11/06 02:12:17;;;;;;;12.65;5.82;;;10.10;99.90;;;;;;6276567;22;20306;-83
2022/11/06 02:15:01;;;;;;;12.73;6.13;;;10.10;99.90;;;;;;6276831;22;20030;-82
2022/11/06 02:18:11;;;;;;;15.90;6.78;;;10.10;99.90;;;;;;6249055;22;20431;-82
2022/11/06 02:20:49;;;;;;;12.95;6.03;;;10.10;99.90;;;;;;6226970;22;20019;-83
2022/11/06 02:23:33;;;;;;;10.23;5.70;;;10.00;99.90;;;;;;6249627;22;20012;-82
2022/11/06 02:26:20;;;;;;;13.38;5.82;;;10.00;99.90;;;;;;6249360;22;20015;-83
2022/11/06 02:28:56;;;;;;;12.02;6.22;;;10.00;99.90;;;;;;6249914;22;20015;-83
2022/11/06 02:31:28;;;;;;;14.15;6.45;;;10.00;99.90;;;;;;6276105;22;20020;-83
2022/11/06 02:33:59;;;;;;;15.45;6.57;;;10.00;99.90;;;;;;6276706;22;20007;-83
2022/11/06 02:36:31;;;;;;;11.30;6.25;;;10.00;99.90;;;;;;6277421;22;20364;-83
2022/11/06 02:39:01;;;;;;;9.63;5.43;;;10.00;99.90;;;;;;6276014;22;20081;-83
2022/11/06 02:41:33;;;;;;;13.00;6.18;;;10.00;99.90;;;;;;6249651;22;20335;-83
2022/11/06 02:44:01;;;;;;;11.57;6.25;;;10.00;99.90;;;;;;6249224;22;20393;-83
2022/11/06 02:46:50;;;;;;;13.27;5.90;;;10.00;99.90;;;;;;6249158;22;20016;-83
2022/11/06 02:49:27;;;;;;;12.50;5.93;;;10.00;99.90;;;;;;6276472;22;20039;-83
2022/11/06 02:51:57;;;;;;;11.55;6.60;;;10.00;99.90;;;;;;6248495;22;20492;-83
2022/11/06 02:54:27;;;;;;;12.93;6.38;;;10.00;99.90;;;;;;6277038;22;20022;-83
2022/11/06 02:56:56;;;;;;;13.95;6.85;;;10.00;99.90;;;;;;6276933;22;20015;-83
2022/11/06 03:00:00;;;;;;;11.88;5.97;;;9.90;99.90;;;;;;6276210;22;20012;-83
2022/11/06 03:02:54;;;;;;;10.13;5.93;;;9.90;99.90;;;;;;6249019;22;20436;-83
2022/11/06 03:05:30;;;;;;;13.30;6.38;;;9.90;99.90;;;;;;6240563;22;20100;-84
2022/11/06 03:08:07;;;;;;;12.38;6.47;;;9.90;99.90;;;;;;6248497;22;20094;-83
2022/11/06 03:10:43;;;;;;;11.95;5.78;;;9.90;99.90;;;;;;6276607;22;20480;-84
2022/11/06 03:13:32;;;;;;;15.88;6.82;;;9.90;99.90;;;;;;6276098;22;20067;-84
2022/11/06 03:16:04;;;;;;;12.05;5.97;;;9.90;99.90;;;;;;6249106;22;20022;-83
2022/11/06 03:19:05;;;;;;;11.80;5.90;;;9.90;99.90;;;;;;6249639;22;20479;-83
2022/11/06 03:21:57;;;;;;;12.38;6.07;;;9.90;99.90;;;;;;6248699;22;20521;-83
2022/11/06 03:24:32;;;;;;;16.15;6.70;;;9.90;99.90;;;;;;6276281;22;20521;-83
2022/11/06 03:27:01;;;;;;;14.82;6.38;;;9.90;99.90;;;;;;6248170;22;20020;-83
2022/11/06 03:29:54;;;;;;;11.27;5.80;;;9.90;99.90;;;;;;6249054;22;20016;-82
2022/11/06 03:32:32;;;;;;;13.50;6.30;;;9.90;99.90;;;;;;6276737;22;20022;-82
2022/11/06 03:35:27;;;;;;;12.82;6.20;;;9.90;99.90;;;;;;6247812;22;20062;-83
2022/11/06 03:38:02;;;;;;;9.48;5.97;;;9.90;99.90;;;;;;6246203;22;20016;-82
2022/11/06 03:40:32;;;;;;;11.60;5.95;;;9.80;99.90;;;;;;6249421;22;20464;-82
2022/11/06 03:43:02;;;;;;;14.35;6.03;;;9.80;99.90;;;;;;6274075;22;20020;-82
2022/11/06 03:45:30;;;;;;;11.07;5.55;;;9.80;99.90;;;;;;6275806;22;20083;-83
2022/11/06 03:48:06;;;;;;;12.93;5.93;;;9.90;99.90;;;;;;6275766;22;20030;-83
2022/11/06 03:50:37;;;;;;;9.38;5.63;;;9.90;99.90;;;;;;6248898;22;20016;-82
2022/11/06 03:53:16;;;;;;;12.68;5.30;;;9.80;99.90;;;;;;6248784;22;20504;-83
2022/11/06 03:55:53;;;;;;;11.50;5.60;;;9.80;99.90;;;;;;6248888;22;20481;-83
2022/11/06 03:58:32;;;;;;;14.70;5.97;;;9.90;99.90;;;;;;6276327;22;20086;-82
2022/11/06 04:01:01;;;;;;;12.63;5.28;;;9.80;99.90;;;;;;6248922;22;20402;-82
2022/11/06 04:03:53;;;;;;;13.20;5.75;;;9.80;99.90;;;;;;6243914;23;20040;-82
2022/11/06 04:06:36;;;;;;;10.50;5.20;;;9.80;99.90;;;;;;6217998;23;20318;-82
2022/11/06 04:14:37;;;;;;;13.05;5.00;;;9.80;99.90;;;;;;6219110;23;20024;-83
2022/11/06 04:17:06;;;;;;;11.95;4.97;;;9.80;99.90;;;;;;6217197;23;20016;-83
2022/11/06 04:19:31;;;;;;;9.68;4.68;;;9.80;99.90;;;;;;6218546;23;20341;-82
2022/11/06 04:22:36;;;;;;;10.05;4.95;;;9.90;99.90;;;;;;6217839;23;20020;-83
2022/11/06 04:28:26;;;;;;;12.05;5.35;;;9.80;99.90;;;;;;6218539;23;20075;-83
2022/11/06 04:31:10;;;;;;;10.57;4.93;;;9.80;99.90;;;;;;6217544;23;20028;-83
2022/11/06 04:33:48;;;;;;;12.45;4.78;;;9.80;99.90;;;;;;6244956;23;20012;-82
2022/11/06 04:36:20;;;;;;;12.63;4.88;;;9.80;99.90;;;;;;6245355;23;20022;-84
2022/11/06 04:39:20;;;;;;;12.20;4.47;;;9.80;99.90;;;;;;6217882;23;20448;-83
2022/11/06 04:41:56;;;;;;;11.18;5.25;;;9.80;99.90;;;;;;6219309;23;20527;-83
2022/11/06 04:44:27;;;;;;;9.90;4.53;;;9.80;99.90;;;;;;6219341;23;20012;-83
2022/11/06 04:47:18;;;;;;;10.23;4.68;;;9.80;99.90;;;;;;6247534;23;20024;-83
2022/11/06 04:49:44;;;;;;;13.48;5.28;;;9.80;99.90;;;;;;6246992;23;20016;-83
2022/11/06 04:52:23;;;;;;;13.68;4.70;;;9.80;99.90;;;;;;6219217;23;20020;-82
2022/11/06 04:54:51;;;;;;;14.00;4.70;;;9.80;99.90;;;;;;6220030;23;20453;-82
2022/11/06 04:57:17;;;;;;;11.88;4.40;;;9.80;99.90;;;;;;6220196;23;20016;-83
2022/11/06 04:59:42;;;;;;;11.57;4.40;;;9.80;99.90;;;;;;6218717;23;20103;-82
2022/11/06 05:02:09;;;;;;;8.68;3.90;;;9.90;99.90;;;;;;6234039;22;20031;-82
2022/11/06 05:04:34;;;;;;;11.05;4.20;;;9.90;99.90;;;;;;6250564;22;20016;-83
2022/11/06 05:07:00;;;;;;;13.57;4.07;;;9.90;99.90;;;;;;6276945;22;20011;-83
2022/11/06 05:09:26;;;;;;;10.15;4.00;;;9.90;99.90;;;;;;6249778;22;20023;-83
2022/11/06 05:11:51;;;;;;;11.10;4.15;;;9.90;99.90;;;;;;6249193;22;20432;-83
2022/11/06 05:14:17;;;;;;;11.30;4.63;;;9.90;99.90;;;;;;6276007;22;20087;-84
2022/11/06 05:16:43;;;;;;;12.35;4.43;;;9.90;99.90;;;;;;6276770;22;20027;-84
2022/11/06 05:19:08;;;;;;;10.32;4.10;;;9.90;99.90;;;;;;6277545;22;20023;-84
2022/11/06 05:24:18;;;;;;;9.02;3.97;;;9.90;99.90;;;;;;6277552;22;20054;-84
2022/11/06 05:26:44;;;;;;;9.02;4.15;;;9.90;99.90;;;;;;6249401;22;20758;-85
2022/11/06 05:29:11;;;;;;;11.73;4.07;;;9.90;99.90;;;;;;6277153;22;20027;-84
2022/11/06 05:31:36;;;;;;;9.88;4.07;;;9.90;99.90;;;;;;6250318;22;20018;-84
2022/11/06 05:34:02;;;;;;;11.05;4.22;;;9.90;99.90;;;;;;6249147;22;20543;-83
2022/11/06 05:36:27;;;;;;;12.52;3.75;;;9.90;99.90;;;;;;6249958;22;20039;-84
2022/11/06 05:38:53;;;;;;;12.05;4.25;;;9.90;99.90;;;;;;6249841;22;20051;-83
2022/11/06 05:41:18;;;;;;;9.70;3.80;;;9.90;99.90;;;;;;6248992;22;20015;-84
2022/11/06 05:43:44;;;;;;;10.20;3.90;;;9.90;99.90;;;;;;6249631;22;20016;-84
2022/11/06 05:46:10;;;;;;;10.30;3.97;;;9.90;99.90;;;;;;6276981;22;20122;-84
2022/11/06 05:48:35;;;;;;;14.73;3.80;;;9.90;99.90;;;;;;6248934;22;20321;-83
2022/11/06 05:51:03;;;;;;;10.88;3.90;;;9.90;99.90;;;;;;6248435;22;20015;-84
2022/11/06 05:53:31;;;;;;;11.60;3.85;;;9.90;99.90;;;;;;6276796;22;20030;-84
2022/11/06 05:55:57;;;;;;;12.25;3.92;;;9.90;99.90;;;;;;6275620;22;20007;-84
2022/11/06 05:58:22;;;;;;;11.48;3.60;;;9.80;99.90;;;;;;6249663;22;20371;-84
2022/11/06 06:00:48;;;;;;;11.93;3.78;;;9.90;99.90;;;;;;6249225;22;20016;-85
2022/11/06 06:03:13;;;;;;;9.55;3.88;;;9.80;99.90;;;;;;6248061;22;20015;-84
2022/11/06 06:05:39;;;;;;;8.45;3.42;;;9.80;99.90;;;;;;6277117;22;20019;-84
2022/11/06 06:08:05;;;;;;;10.63;3.38;;;9.80;99.90;;;;;;6276600;22;20019;-84
2022/11/06 06:10:31;;;;;;;12.63;3.53;;;9.80;99.90;;;;;;6248010;22;20007;-84
2022/11/06 06:12:56;;;;;;;9.15;3.17;;;9.80;99.90;;;;;;6249466;22;20015;-86
2022/11/06 06:15:22;;;;;;;8.50;3.25;;;9.80;99.90;;;;;;6277524;22;20098;-86
2022/11/06 06:17:48;;;;;;;9.82;3.45;;;9.80;99.90;;;;;;6275954;22;20011;-86
2022/11/06 06:20:13;;;;;;;12.48;3.90;;;9.80;99.90;;;;;;6277522;22;20367;-86
2022/11/06 06:22:39;;;;;;;10.55;3.22;;;9.80;99.90;;;;;;6249795;22;20379;-84
2022/11/06 06:25:08;;;;;;;14.82;3.25;;;9.80;99.90;;;;;;6277382;22;20016;-85
2022/11/06 06:27:39;;;;;;;10.70;3.25;;;9.80;99.90;;;;;;6249902;22;20062;-85
2022/11/06 06:30:05;;;;;;;10.80;3.20;;;9.80;99.90;;;;;;6277071;22;20016;-89
2022/11/06 06:32:32;;;;;;;9.75;3.08;;;9.80;99.90;;;;;;6249433;22;20020;-88
2022/11/06 06:34:57;;;;;;;16.17;3.60;;;9.90;99.90;;;;;;6250169;22;20016;-88
2022/11/06 06:37:23;;;;;;;10.75;3.10;;;9.90;99.90;;;;;;6248853;22;20015;-85
2022/11/06 06:39:48;;;;;;;10.98;3.10;;;9.90;99.90;;;;;;6275930;22;20015;-84
2022/11/06 06:42:14;;;;;;;11.32;2.95;;;9.90;99.90;;;;;;6249661;22;20016;-84
2022/11/06 06:44:40;;;;;;;10.32;3.20;;;9.90;99.90;;;;;;6248890;22;20428;-85
2022/11/06 06:47:05;;;;;;;9.10;3.05;;;9.90;99.90;;;;;;6249654;22;20343;-85
2022/11/06 06:49:31;;;;;;;9.18;3.28;;;9.90;99.90;;;;;;6277818;22;20019;-85
2022/11/06 06:51:57;;;;;;;7.72;2.65;;;9.90;99.90;;;;;;6249140;22;20456;-85
2022/11/06 06:54:22;;;;;;;12.23;3.35;;;9.90;99.90;;;;;;6250716;22;20015;-85
2022/11/06 06:56:48;;;;;;;8.82;2.75;;;9.90;99.90;;;;;;6250427;22;20543;-84
2022/11/06 06:59:14;;;;;;;10.18;2.83;;;9.90;99.90;;;;;;6276031;22;20452;-84
2022/11/06 07:01:40;;;;;;;9.80;3.20;;;10.00;99.90;;;;;;6250712;22;20020;-86
2022/11/06 07:04:05;;;;;;;9.90;2.95;;;10.00;99.90;;;;;;6276093;22;20027;-84
2022/11/06 07:06:31;;;;;;;11.25;3.20;;;10.00;99.90;;;;;;6275870;22;20039;-84
2022/11/06 07:08:57;;;;;;;10.45;3.03;;;10.00;99.90;;;;;;6276312;22;20011;-84
2022/11/06 07:11:22;;;;;;;9.88;2.80;;;10.00;99.90;;;;;;6249619;22;20058;-84
2022/11/06 07:13:48;;;;;;;8.82;2.53;;;10.00;99.90;;;;;;6248507;22;20118;-86
2022/11/06 07:16:14;;;;;;;10.10;2.88;;;10.00;99.90;;;;;;6276837;22;20020;-84
2022/11/06 07:18:40;;;;;;;6.82;2.63;;;10.10;99.90;;;;;;6276213;22;20094;-85
2022/11/06 07:21:07;;;;;;;7.82;2.55;;;10.10;99.90;;;;;;6248914;22;20039;-85
2022/11/06 07:23:34;;;;;;;8.50;2.97;;;10.10;99.90;;;;;;6276477;22;20332;-84
2022/11/06 07:26:03;;;;;;;12.82;2.95;;;10.10;99.90;;;;;;6248725;22;20012;-84
2022/11/06 07:28:29;;;;;;;9.00;2.60;;;10.10;99.90;;;;;;6248593;22;20070;-84
2022/11/06 07:31:00;;;;;;;9.63;2.75;;;10.10;99.90;;;;;;6249343;22;20055;-84
2022/11/06 07:33:26;;;;;;;13.23;2.72;;;10.20;99.90;;;;;;6248610;22;20011;-84
2022/11/06 07:35:51;;;;;;;9.05;2.80;;;10.20;99.90;;;;;;6247877;22;20045;-84
2022/11/06 07:38:17;;;;;;;11.00;3.00;;;10.20;99.90;;;;;;6276241;22;20065;-84
2022/11/06 07:40:43;;;;;;;13.63;3.22;;;10.20;99.90;;;;;;6248307;22;20440;-85
2022/11/06 07:43:10;;;;;;;10.55;2.67;;;10.20;99.90;;;;;;6276228;22;20325;-84
2022/11/06 07:45:37;;;;;;;10.40;2.60;;;10.20;99.90;;;;;;6276708;22;20015;-85
2022/11/06 07:48:03;;;;;;;13.77;2.95;;;10.30;99.90;;;;;;6248054;22;20058;-84
2022/11/06 07:50:30;;;;;;;9.90;2.38;;;10.30;99.90;;;;;;6248707;22;20015;-84
2022/11/06 07:52:56;;;;;;;13.98;3.00;;;10.30;99.90;;;;;;6275498;22;20436;-84
2022/11/06 07:55:22;;;;;;;10.60;2.60;;;10.30;99.90;;;;;;6275334;22;20019;-84
2022/11/06 07:57:48;;;;;;;11.02;2.75;;;10.30;99.90;;;;;;6248668;22;20028;-84
2022/11/06 08:00:14;;;;;;;11.30;2.63;;;10.30;99.90;;;;;;6249055;22;20099;-85
2022/11/06 08:02:40;;;;;;;10.32;2.53;;;10.30;99.90;;;;;;6275143;22;20082;-85
2022/11/06 08:05:08;;;;;;;9.13;2.65;;;10.30;99.90;;;;;;6248860;22;20015;-84
2022/11/06 08:07:33;;;;;;;9.95;2.72;;;10.30;99.90;;;;;;6248361;22;20039;-86
2022/11/06 08:09:59;;;;;;;11.90;2.80;;;10.30;99.90;;;;;;6274447;22;20459;-83
2022/11/06 08:12:25;;;;;;;9.57;2.58;;;10.30;99.90;;;;;;6275885;22;20016;-84
2022/11/06 08:14:50;;;;;;;9.82;2.35;;;10.30;99.90;;;;;;6250600;22;20026;-83
2022/11/06 08:17:16;;;;;;;8.88;2.25;;;10.30;99.90;;;;;;6276977;22;20055;-83
2022/11/06 08:19:41;;;;;;;8.38;2.13;;;10.30;99.90;;;;;;6278356;22;20015;-83
2022/11/06 08:22:08;;;;;;;13.43;3.00;;;10.30;99.90;;;;;;6250948;22;20015;-83
2022/11/06 08:24:34;;;;;;;8.05;2.50;;;10.30;99.90;;;;;;6249879;22;20052;-85
2022/11/06 08:27:01;;;;;;;13.48;2.60;;;10.30;99.90;;;;;;6250786;22;20061;-85
2022/11/06 08:29:27;;;;;;;9.43;2.60;;;10.30;99.90;;;;;;6249881;22;20051;-85
2022/11/06 08:31:53;;;;;;;9.38;2.38;;;10.30;99.90;;;;;;6251455;22;20043;-84
2022/11/06 08:34:18;;;;;;;7.93;2.25;;;10.30;99.90;;;;;;6251254;22;20020;-84
2022/11/06 08:36:45;;;;;;;9.10;2.33;;;10.40;99.90;;;;;;6250183;22;20019;-84
2022/11/06 08:39:11;;;;;;;9.52;2.13;;;10.40;99.90;;;;;;6278383;22;20012;-84
2022/11/06 08:41:38;;;;;;;7.18;2.00;;;10.40;99.90;;;;;;6251601;22;20019;-84
2022/11/06 08:44:04;;;;;;;10.02;2.45;;;10.40;99.90;;;;;;6251787;22;20066;-85
2022/11/06 08:46:29;;;;;;;7.38;2.28;;;10.40;99.90;;;;;;6251191;22;20016;-84
2022/11/06 08:48:55;;;;;;;9.25;2.70;;;10.40;99.90;;;;;;6250064;22;20020;-84
2022/11/06 08:51:21;;;;;;;13.75;2.75;;;10.40;99.90;;;;;;6249344;22;20016;-83
2022/11/06 08:53:46;;;;;;;10.82;2.70;;;10.40;99.90;;;;;;6250409;22;20038;-85
2022/11/06 08:56:13;;;;;;;9.80;2.40;;;10.40;99.90;;;;;;6277399;22;20119;-85
2022/11/06 08:58:38;;;;;;;9.80;2.10;;;10.40;99.90;;;;;;6276895;22;20436;-85
2022/11/06 09:01:04;;;;;;;11.45;2.42;;;10.40;99.90;;;;;;6249368;22;20057;-85
2022/11/06 09:03:30;;;;;;;11.30;2.65;;;10.40;99.90;;;;;;6277873;22;20102;-85
2022/11/06 09:05:56;;;;;;;9.25;2.53;;;10.40;99.90;;;;;;6248767;22;20016;-85
2022/11/06 09:08:23;;;;;;;10.18;2.55;;;10.40;99.90;;;;;;6249424;22;20008;-86
2022/11/06 09:10:49;;;;;;;11.90;2.78;;;10.50;99.90;;;;;;6249959;22;20133;-85
2022/11/06 09:13:14;;;;;;;7.00;2.42;;;10.50;99.90;;;;;;6249701;22;20007;-86
2022/11/06 09:15:40;;;;;;;10.70;2.58;;;10.50;99.90;;;;;;6249319;22;20023;-84
2022/11/06 09:18:06;;;;;;;6.70;2.55;;;10.50;99.90;;;;;;6249441;22;20020;-86
2022/11/06 09:20:33;;;;;;;9.02;2.33;;;10.60;99.90;;;;;;6249398;22;20126;-86
2022/11/06 09:23:01;;;;;;;7.82;2.33;;;10.60;99.90;;;;;;6277704;22;20459;-85
2022/11/06 09:25:27;;;;;;;9.60;2.60;;;10.60;99.90;;;;;;6249969;22;20011;-85
2022/11/06 09:27:53;;;;;;;8.48;2.40;;;10.60;99.90;;;;;;6249535;22;20035;-85
2022/11/06 09:30:20;;;;;;;11.40;2.25;;;10.70;99.90;;;;;;6250035;22;20043;-85
2022/11/06 09:32:51;;;;;;;10.57;2.20;;;10.70;99.90;;;;;;6222648;23;20354;-85
2022/11/06 09:35:18;;;;;;;6.38;1.98;;;10.80;99.90;;;;;;6219930;23;20074;-85
2022/11/06 09:37:44;;;;;;;7.95;2.47;;;10.80;99.90;;;;;;6219292;23;20027;-86
2022/11/06 09:40:58;;;;;;;9.15;2.20;;;10.90;99.90;;;;;;6245957;23;20016;-84
2022/11/06 09:43:48;;;;;;;7.30;2.33;;;10.90;99.90;;;;;;6220294;23;20035;-85
2022/11/06 09:46:23;;;;;;;9.82;2.55;;;11.00;99.90;;;;;;6246986;23;20026;-87
2022/11/06 09:48:56;;;;;;;8.30;2.40;;;11.00;99.90;;;;;;6246568;23;20016;-84
2022/11/06 09:51:47;;;;;;;11.00;2.35;;;11.10;99.90;;;;;;6246124;23;20018;-84
2022/11/06 09:54:48;;;;;;;10.20;2.08;;;11.10;99.90;;;;;;6244800;23;20016;-82
2022/11/06 09:58:10;;;;;;;8.05;2.13;;;11.20;99.90;;;;;;6246667;23;20020;-84
2022/11/06 10:00:42;;;;;;;9.68;2.30;;;11.20;99.90;;;;;;6121688;23;20022;-83
2022/11/06 10:03:34;;;;;;;7.97;1.90;;;11.20;99.90;;;;;;6123934;23;20044;-83
2022/11/06 10:06:00;;;;;;;6.38;2.00;;;11.20;99.90;;;;;;6197246;23;20020;-84
2022/11/06 10:08:42;;;;;;;11.32;2.05;;;11.30;99.90;;;;;;6219349;23;20024;-83
2022/11/06 10:11:26;;;;;;;10.63;2.10;;;11.30;99.90;;;;;;6220222;23;20026;-85
2022/11/06 10:14:18;;;;;;;8.27;1.83;;;11.30;99.90;;;;;;6220224;23;20471;-81
2022/11/06 10:17:00;;;;;;;8.43;2.00;;;11.30;99.90;;;;;;6218541;23;20052;-82
2022/11/06 10:19:47;;;;;;;7.80;1.90;;;11.30;99.90;;;;;;6247338;23;20055;-84
2022/11/06 10:22:24;;;;;;;9.32;2.00;;;11.40;99.90;;;;;;6219072;23;20012;-85
2022/11/06 10:25:12;;;;;;;10.30;2.20;;;11.40;99.90;;;;;;6219566;23;20023;-84
2022/11/06 10:27:40;;;;;;;6.95;1.58;;;11.40;99.90;;;;;;6201168;23;20016;-84
2022/11/06 10:30:14;;;;;;;6.70;1.80;;;11.50;99.90;;;;;;6218778;23;20015;-84
2022/11/06 10:33:17;;;;;;;6.88;1.90;;;11.50;99.90;;;;;;6219272;23;20020;-84
2022/11/06 10:36:04;;;;;;;10.15;2.08;;;11.50;99.90;;;;;;6246370;23;20107;-84
2022/11/06 10:38:35;;;;;;;7.78;2.00;;;11.50;99.90;;;;;;6237127;23;20020;-85
2022/11/06 10:41:00;;;;;;;8.02;1.90;;;11.50;99.90;;;;;;6218751;23;20016;-83
2022/11/06 10:43:32;;;;;;;10.50;2.05;;;11.60;99.90;;;;;;6244662;23;20020;-84
2022/11/06 10:46:22;;;;;;;10.65;1.92;;;11.60;99.90;;;;;;6218048;23;20016;-83
2022/11/06 10:48:57;;;;;;;11.57;2.22;;;11.60;99.90;;;;;;6218274;23;20041;-83
2022/11/06 10:52:16;;;;;;;10.10;2.20;;;11.60;99.90;;;;;;6216623;23;20016;-84
2022/11/06 10:54:42;;;;;;;9.88;1.90;;;11.60;99.90;;;;;;6153355;23;20070;-83
2022/11/06 10:57:45;;;;;;;9.80;2.13;;;11.60;99.90;;;;;;6219304;23;20020;-84
2022/11/06 11:00:14;;;;;;;6.82;2.00;;;11.60;99.90;;;;;;6219000;23;20016;-84
2022/11/06 11:02:51;;;;;;;8.23;1.88;;;11.60;99.90;;;;;;6246063;23;20159;-84
2022/11/06 11:05:20;;;;;;;10.43;2.00;;;11.60;99.90;;;;;;6217525;23;20444;-84
2022/11/06 11:07:48;;;;;;;8.52;2.35;;;11.60;99.90;;;;;;6218525;23;20012;-86
2022/11/06 11:10:23;;;;;;;6.40;2.05;;;11.60;99.90;;;;;;6217926;23;20012;-84
2022/11/06 11:12:59;;;;;;;6.97;1.63;;;11.60;99.90;;;;;;6216522;23;20023;-84
2022/11/06 11:15:32;;;;;;;9.00;2.10;;;11.60;99.90;;;;;;6217407;23;20461;-84
2022/11/06 11:18:18;;;;;;;8.70;2.10;;;11.60;99.90;;;;;;6245455;23;20074;-83
2022/11/06 11:20:50;;;;;;;8.70;2.05;;;11.60;99.90;;;;;;6244887;23;20405;-84
2022/11/06 11:23:24;;;;;;;14.67;1.93;;;11.60;99.90;;;;;;6217970;23;20012;-85
2022/11/06 11:26:11;;;;;;;8.05;1.95;;;11.60;99.90;;;;;;6243889;23;20563;-85
2022/11/06 11:28:38;;;;;;;8.70;2.05;;;11.60;99.90;;;;;;6245678;23;20065;-84
2022/11/06 11:31:14;;;;;;;7.18;2.00;;;11.70;99.90;;;;;;6218010;23;20020;-85
2022/11/06 11:33:46;;;;;;;8.38;1.70;;;11.70;99.90;;;;;;6217272;23;20016;-85
2022/11/06 11:36:12;;;;;;;7.33;1.90;;;11.70;99.90;;;;;;6218462;23;20031;-85
2022/11/06 11:38:39;;;;;;;9.63;2.30;;;11.70;99.90;;;;;;6218528;23;20047;-85
2022/11/06 11:41:11;;;;;;;7.93;1.80;;;11.70;99.90;;;;;;6217144;23;20016;-85
2022/11/06 11:43:37;;;;;;;7.68;1.80;;;11.70;99.90;;;;;;6245682;23;20024;-85
2022/11/06 11:46:08;;;;;;;7.43;1.80;;;11.70;99.90;;;;;;6245356;23;20016;-85
2022/11/06 11:48:42;;;;;;;7.25;1.70;;;11.70;99.90;;;;;;6217271;23;20016;-85
2022/11/06 11:51:38;;;;;;;8.63;2.10;;;11.70;99.90;;;;;;6217820;23;20023;-85
2022/11/06 11:54:25;;;;;;;9.25;2.03;;;11.80;99.90;;;;;;6242511;23;20020;-85
2022/11/06 11:57:16;;;;;;;9.07;1.95;;;11.70;99.90;;;;;;6232905;23;20054;-85
2022/11/06 11:59:55;;;;;;;8.52;1.63;;;11.80;99.90;;;;;;6218721;23;20008;-85
2022/11/06 12:02:36;;;;;;;8.05;1.95;;;11.80;99.90;;;;;;6226147;23;20022;-85
2022/11/06 12:06:03;;;;;;;8.80;1.88;;;11.80;99.90;;;;;;6221112;23;20060;-85
2022/11/06 12:08:45;;;;;;;6.85;2.08;;;11.80;99.90;;;;;;6176617;23;20020;-84
2022/11/06 12:11:17;;;;;;;7.75;1.88;;;11.80;99.90;;;;;;6218367;23;20012;-84
2022/11/06 12:13:43;;;;;;;7.33;1.73;;;11.90;99.90;;;;;;6217750;23;20095;-84
2022/11/06 12:20:16;;;;;;;6.72;1.98;;;11.90;99.90;;;;;;6097903;23;20022;-84
2022/11/06 12:22:57;;;;;;;11.00;1.83;;;11.80;99.90;;;;;;6127068;23;20466;-84
2022/11/06 12:25:40;;;;;;;8.80;1.73;;;12.00;99.90;;;;;;6217206;23;20024;-85
2022/11/06 12:28:16;;;;;;;6.65;1.77;;;12.00;99.90;;;;;;6245128;23;20016;-83
2022/11/06 12:30:44;;;;;;;6.07;1.50;;;12.00;99.90;;;;;;6243864;23;20336;-83
2022/11/06 12:33:36;;;;;;;7.05;1.50;;;12.10;99.90;;;;;;6188490;23;20079;-83
2022/11/06 12:36:07;;;;;;;7.72;1.42;;;12.10;99.90;;;;;;6186474;23;20406;-84
2022/11/06 12:38:58;;;;;;;9.95;1.58;;;12.10;99.90;;;;;;6213828;23;20023;-84
2022/11/06 12:41:29;;;;;;;8.68;1.70;;;12.10;99.90;;;;;;6188316;23;20020;-83
2022/11/06 12:43:55;;;;;;;8.30;2.05;;;12.20;99.90;;;;;;6187678;23;20016;-84
2022/11/06 12:46:51;;;;;;;7.10;1.88;;;12.20;99.90;;;;;;6188493;23;20016;-84
2022/11/06 12:49:47;;;;;;;5.25;1.83;;;12.20;99.90;;;;;;6188530;23;20013;-85
2022/11/06 12:53:00;;;;;;;7.95;2.08;;;12.20;99.90;;;;;;6214964;23;20024;-83
2022/11/06 12:56:00;;;;;;;8.15;1.88;;;12.20;99.90;;;;;;6188249;23;20051;-84
2022/11/06 12:58:42;;;;;;;6.22;1.73;;;12.20;99.90;;;;;;6147658;23;20016;-84
2022/11/06 13:01:19;;;;;;;8.32;1.60;;;12.20;99.90;;;;;;6190170;23;20059;-83
2022/11/06 13:04:00;;;;;;;8.50;1.83;;;12.20;99.90;;;;;;6216253;23;20082;-83
2022/11/06 13:07:06;;;;;;;5.10;1.27;;;12.20;99.90;;;;;;6190925;23;20013;-83
2022/11/06 13:09:56;;;;;;;10.10;1.92;;;12.20;99.80;;;;;;6191406;23;20020;-83
2022/11/06 13:12:38;;;;;;;9.20;1.80;;;12.20;99.80;;;;;;6189203;23;20027;-84
2022/11/06 13:15:07;;;;;;;7.45;1.48;;;12.30;99.80;;;;;;6189471;23;20040;-83
2022/11/06 13:17:48;;;;;;;7.95;1.83;;;12.20;99.80;;;;;;6216694;23;20016;-84
2022/11/06 13:20:25;;;;;;;4.60;1.30;;;12.30;99.60;;;;;;6216281;23;20461;-83
2022/11/06 13:23:14;;;;;;;7.82;1.52;;;12.30;99.70;;;;;;6190260;23;20012;-85
2022/11/06 13:25:59;;;;;;;8.13;3.25;;;12.30;99.50;;;;;;6215876;23;20016;-85
2022/11/06 13:28:41;;;;;;;6.28;1.35;;;12.30;99.50;;;;;;6190192;23;20087;-84
2022/11/06 13:31:10;;;;;;;12.40;3.60;;;12.30;99.70;;;;;;6219895;22;20453;-84